Terminal Aerodrome Forecast
Issued by NWS Mobile, AL

Home | Current Version | Previous Version | Text Only | Print | Product List | Glossary On
Versions: 1 2 3 4 5 6 7 8 9 10 11 12 13 14 15
000
FTUS44 KMOB 102342 CCA
TAFPNS
TAF COR
KPNS 102342Z 1100/1124 04006KT P6SM FEW250
     FM111500 08005KT P6SM SCT015
     FM111800 13009KT P6SM BKN020=

USA.gov is the U.S. government's official web portal to all federal, state and local government web resources and services.